createdAt,value
2022-12-01T00:04:11.365Z,94.14
2022-12-01T00:09:33.516Z,94.22
2022-12-01T00:14:37.134Z,94.28
2022-12-01T00:19:40.346Z,94.43
2022-12-01T00:24:43.550Z,94.58
2022-12-01T00:29:47.464Z,94.51
2022-12-01T00:34:50.886Z,94.64
2022-12-01T00:39:54.095Z,94.71
2022-12-01T00:44:57.405Z,94.78
2022-12-01T00:50:00.512Z,94.84
2022-12-01T00:55:04.230Z,94.89
2022-12-01T01:00:08.360Z,95.02
2022-12-01T01:05:11.575Z,94.97
2022-12-01T01:10:14.876Z,94.87
2022-12-01T01:15:20.205Z,94.84
2022-12-01T01:20:23.340Z,94.95
2022-12-01T01:25:26.853Z,95.08
2022-12-01T01:30:30.231Z,95.26
2022-12-01T01:35:33.579Z,95.14
2022-12-01T01:40:46.412Z,95.33
2022-12-01T01:45:49.651Z,95.27
2022-12-01T01:50:53.034Z,95.22
2022-12-01T01:55:56.238Z,95.15
2022-12-01T02:00:59.491Z,95.00
2022-12-01T02:06:05.149Z,94.70
2022-12-01T02:11:31.771Z,94.16
2022-12-01T02:17:08.300Z,93.99
2022-12-01T02:22:53.519Z,93.84
2022-12-01T02:28:18.163Z,93.77
2022-12-01T02:33:26.696Z,93.90
2022-12-01T02:38:58.472Z,93.86
2022-12-01T02:44:16.835Z,93.87
2022-12-01T02:49:26.186Z,93.78
2022-12-01T02:54:31.935Z,93.90
2022-12-01T02:59:35.058Z,93.91
2022-12-01T03:04:41.241Z,94.04
2022-12-01T03:10:09.636Z,94.33
2022-12-01T03:15:31.599Z,94.49
2022-12-01T03:20:49.745Z,94.71
2022-12-01T03:25:56.740Z,94.73
2022-12-01T03:31:07.483Z,94.73
2022-12-01T03:36:15.646Z,95.05
2022-12-01T03:41:25.515Z,95.10
2022-12-01T03:46:50.632Z,95.18
2022-12-01T03:51:59.573Z,95.33
2022-12-01T03:57:11.689Z,95.50
2022-12-01T04:02:15.205Z,95.82
2022-12-01T04:07:18.312Z,96.27
2022-12-01T04:12:30.435Z,96.58
2022-12-01T04:17:34.779Z,96.78
2022-12-01T04:22:38.281Z,97.06
2022-12-01T04:27:41.586Z,97.25
2022-12-01T04:32:44.796Z,97.47
2022-12-01T04:37:48.106Z,97.81
2022-12-01T04:42:51.209Z,98.22
2022-12-01T04:47:54.729Z,98.57
2022-12-01T04:52:57.831Z,98.98
2022-12-01T04:58:02.678Z,99.39
2022-12-01T05:03:12.130Z,99.90
2022-12-01T05:08:18.308Z,100.00
2022-12-01T05:13:21.515Z,100.00
2022-12-01T05:18:25.096Z,100.00
2022-12-01T05:23:32.034Z,100.00
2022-12-01T05:28:35.978Z,100.00
2022-12-01T05:33:39.675Z,100.00
2022-12-01T05:38:42.984Z,100.00
2022-12-01T05:43:46.091Z,100.00
2022-12-01T05:48:49.299Z,100.00
2022-12-01T05:53:52.405Z,100.00
2022-12-01T05:58:55.615Z,100.00
2022-12-01T06:03:59.153Z,100.00
2022-12-01T06:09:02.239Z,100.00
2022-12-01T06:14:05.752Z,100.00
2022-12-01T06:19:09.062Z,100.00
2022-12-01T06:24:12.270Z,100.00
2022-12-01T06:29:15.473Z,100.00
2022-12-01T06:34:19.094Z,100.00
2022-12-01T06:39:23.224Z,100.00
2022-12-01T06:44:26.437Z,100.00
2022-12-01T06:49:29.741Z,100.00
2022-12-01T06:54:33.869Z,100.00
2022-12-01T06:59:37.384Z,100.00
2022-12-01T07:04:40.696Z,100.00
2022-12-01T07:09:43.905Z,100.00
2022-12-01T07:14:47.215Z,100.00
2022-12-01T07:19:50.507Z,100.00
2022-12-01T07:24:54.041Z,100.00
2022-12-01T07:29:57.142Z,100.00
2022-12-01T07:35:00.353Z,100.00
2022-12-01T07:40:04.892Z,100.00
2022-12-01T07:45:10.353Z,100.00
2022-12-01T07:50:14.160Z,100.00
2022-12-01T07:55:17.793Z,100.00
2022-12-01T08:00:21.616Z,100.00
2022-12-01T08:05:24.821Z,100.00
2022-12-01T08:10:28.334Z,100.00
2022-12-01T08:15:31.910Z,100.00
2022-12-01T08:20:35.265Z,100.00
2022-12-01T08:25:38.776Z,100.00
2022-12-01T08:30:42.329Z,100.00
2022-12-01T08:35:45.706Z,100.00
2022-12-01T08:40:48.916Z,100.00
2022-12-01T08:45:52.375Z,100.00
2022-12-01T08:51:03.270Z,100.00
2022-12-01T08:56:32.651Z,100.00
2022-12-01T09:01:52.139Z,100.00
2022-12-01T09:06:57.754Z,100.00
2022-12-01T09:12:00.794Z,100.00
2022-12-01T09:17:04.109Z,100.00
2022-12-01T09:22:07.722Z,100.00
2022-12-01T09:27:10.926Z,100.00
2022-12-01T09:32:14.238Z,100.00
2022-12-01T09:37:17.446Z,100.00
2022-12-01T09:42:32.212Z,100.00
2022-12-01T09:47:40.314Z,100.00
2022-12-01T09:52:48.087Z,100.00
2022-12-01T09:57:58.829Z,100.00
2022-12-01T10:03:10.860Z,100.00
2022-12-01T10:08:26.781Z,100.00
2022-12-01T10:13:34.380Z,100.00
2022-12-01T10:18:46.701Z,100.00
2022-12-01T10:24:23.597Z,100.00
2022-12-01T10:29:50.080Z,100.00
2022-12-01T10:34:53.768Z,100.00
2022-12-01T10:39:58.411Z,99.97
2022-12-01T10:45:06.225Z,100.00
2022-12-01T10:50:26.021Z,99.82
2022-12-01T10:55:34.042Z,99.60
2022-12-01T11:06:06.238Z,99.97
2022-12-01T11:11:24.725Z,99.84
2022-12-01T11:16:38.754Z,99.71
2022-12-01T11:21:50.839Z,99.35
2022-12-01T11:26:56.199Z,99.40
2022-12-01T11:32:01.728Z,99.70
2022-12-01T11:37:15.175Z,99.65
2022-12-01T11:42:28.417Z,99.94
2022-12-01T11:47:31.932Z,100.00
2022-12-01T11:52:46.060Z,100.00
2022-12-01T11:58:10.297Z,99.93
2022-12-01T12:03:39.349Z,99.90
2022-12-01T12:09:27.266Z,99.92
2022-12-01T12:14:42.453Z,100.00
2022-12-01T12:20:43.314Z,100.00
2022-12-01T12:26:18.678Z,99.94
2022-12-01T12:31:24.853Z,100.00
2022-12-01T12:36:28.169Z,100.00
2022-12-01T12:41:43.452Z,100.00
2022-12-01T12:47:11.341Z,100.00
2022-12-01T12:52:23.764Z,100.00
2022-12-01T12:57:32.909Z,100.00
2022-12-01T13:03:02.462Z,100.00
2022-12-01T13:08:16.297Z,100.00
2022-12-01T13:13:37.833Z,100.00
2022-12-01T13:18:49.948Z,100.00
2022-12-01T13:23:54.182Z,100.00
2022-12-01T13:28:59.298Z,100.00
2022-12-01T13:34:05.365Z,100.00
2022-12-01T13:39:20.955Z,100.00
2022-12-01T13:44:41.423Z,100.00
2022-12-01T13:49:47.332Z,100.00
2022-12-01T13:55:09.620Z,100.00
2022-12-01T14:00:28.081Z,100.00
2022-12-01T14:05:40.537Z,100.00
2022-12-01T14:10:58.900Z,100.00
2022-12-01T14:16:04.683Z,100.00
2022-12-01T14:21:11.579Z,100.00
2022-12-01T14:26:21.099Z,100.00
2022-12-01T14:31:51.115Z,100.00
2022-12-01T14:37:06.349Z,100.00
2022-12-01T14:42:53.899Z,100.00
2022-12-01T14:48:09.902Z,100.00
2022-12-01T14:53:23.925Z,100.00
2022-12-01T14:58:32.280Z,100.00
2022-12-01T15:03:38.290Z,100.00
2022-12-01T15:08:49.105Z,100.00
2022-12-01T15:13:57.666Z,100.00
2022-12-01T15:19:01.338Z,100.00
2022-12-01T15:24:22.721Z,100.00
2022-12-01T15:29:37.315Z,100.00
2022-12-01T15:34:50.459Z,100.00
2022-12-01T15:45:25.586Z,100.00
2022-12-01T15:50:46.165Z,100.00
2022-12-01T15:55:58.315Z,100.00
2022-12-01T16:01:13.911Z,100.00
2022-12-01T16:06:18.514Z,100.00
2022-12-01T16:11:22.441Z,100.00
2022-12-01T16:16:36.080Z,100.00
2022-12-01T16:21:44.733Z,100.00
2022-12-01T16:27:01.452Z,100.00
2022-12-01T16:32:41.328Z,100.00
2022-12-01T16:37:44.638Z,100.00
2022-12-01T16:42:50.097Z,100.00
2022-12-01T16:47:55.150Z,100.00
2022-12-01T16:52:58.964Z,100.00
2022-12-01T16:58:02.586Z,100.00
2022-12-01T17:03:06.255Z,100.00
2022-12-01T17:08:11.926Z,100.00
2022-12-01T17:13:17.134Z,100.00
2022-12-01T17:18:22.409Z,100.00
2022-12-01T17:23:26.532Z,100.00
2022-12-01T17:28:30.876Z,100.00
2022-12-01T17:33:36.199Z,100.00
2022-12-01T17:38:43.880Z,100.00
2022-12-01T17:43:47.222Z,100.00
2022-12-01T17:48:51.215Z,100.00
2022-12-01T17:53:55.310Z,100.00
2022-12-01T17:58:58.895Z,100.00
2022-12-01T18:04:02.114Z,100.00
2022-12-01T18:09:07.197Z,99.88
2022-12-01T18:14:11.388Z,98.98
2022-12-01T18:19:15.107Z,98.44
2022-12-01T18:24:19.235Z,98.27
2022-12-01T18:29:29.018Z,97.86
2022-12-01T18:34:34.436Z,97.66
2022-12-01T18:39:38.078Z,97.48
2022-12-01T18:44:42.615Z,96.83
2022-12-01T18:49:46.130Z,96.93
2022-12-01T18:54:50.561Z,96.76
2022-12-01T18:59:54.360Z,96.76
2022-12-01T19:04:59.116Z,96.44
2022-12-01T19:10:08.036Z,95.75
2022-12-01T19:15:14.671Z,95.23
2022-12-01T19:20:20.737Z,95.02
2022-12-01T19:25:24.871Z,94.92
2022-12-01T19:30:28.194Z,94.48
2022-12-01T19:35:32.005Z,94.19
2022-12-01T19:40:37.670Z,94.00
2022-12-01T19:45:45.852Z,93.59
2022-12-01T19:50:49.509Z,92.86
2022-12-01T19:55:53.127Z,92.73
2022-12-01T20:01:03.302Z,92.61
2022-12-01T20:06:15.354Z,92.40
2022-12-01T20:11:19.037Z,92.28
2022-12-01T20:16:26.244Z,92.02
2022-12-01T20:21:33.556Z,91.87
2022-12-01T20:26:40.299Z,92.04
2022-12-01T20:31:44.609Z,92.05
2022-12-01T20:36:48.694Z,91.84
2022-12-01T20:41:52.217Z,91.81
2022-12-01T20:46:55.628Z,91.43
2022-12-01T20:51:58.917Z,91.81
2022-12-01T20:57:02.450Z,91.08
2022-12-01T21:02:05.908Z,91.07
2022-12-01T21:07:09.783Z,91.33
2022-12-01T21:12:33.583Z,91.50
2022-12-01T21:17:40.068Z,90.86
2022-12-01T21:22:43.476Z,90.31
2022-12-01T21:27:48.186Z,90.57
2022-12-01T21:32:53.092Z,90.97
2022-12-01T21:38:07.232Z,90.64
2022-12-01T21:43:22.987Z,90.92
2022-12-01T21:48:35.459Z,90.99
2022-12-01T21:53:39.586Z,90.88
2022-12-01T21:58:44.232Z,90.51
2022-12-01T22:03:48.052Z,90.40
2022-12-01T22:08:55.049Z,90.32
2022-12-01T22:14:14.547Z,90.39
2022-12-01T22:19:23.686Z,90.39
2022-12-01T22:24:42.531Z,90.46
2022-12-01T22:29:48.021Z,90.84
2022-12-01T22:34:55.329Z,90.98
2022-12-01T22:39:58.646Z,91.08
2022-12-01T22:45:14.952Z,91.25
2022-12-01T22:50:32.597Z,91.19
2022-12-01T22:55:35.804Z,90.96
2022-12-01T23:00:39.419Z,90.70
2022-12-01T23:05:42.730Z,90.59
2022-12-01T23:10:46.555Z,90.40
2022-12-01T23:15:53.113Z,90.46
2022-12-01T23:20:58.110Z,90.29
2022-12-01T23:26:06.859Z,90.15
2022-12-01T23:31:10.491Z,90.01
2022-12-01T23:36:24.001Z,89.94
2022-12-01T23:41:54.136Z,89.71
2022-12-01T23:46:59.065Z,89.88
2022-12-01T23:52:03.525Z,89.42
2022-12-01T23:57:25.467Z,89.75
